Weather observations for the past three days for
Coffeyville, Coffeyville Municipal Airport
Imperial (Metric)
Date Time (cdt) Wind (mph) Vis. (mi.) Weather Sky Cond. Temperature (ºF) Relative Humidity Wind Chill (°F) Heat Index (°F) Pressure Precipitation (in)
Air Dwpt 6 hour altimeter (in) sea level (mb) 1 hr 3 hr 6 hr
Max. Min.
05 04:52 Calm 10.00 Fair CLR 73.9 66 76% 29.92 1012.3
05 03:52 Calm 10.00 Fair CLR 77 66 69% 79 29.91 1012.0
05 02:52 Calm 10.00 Fair CLR 79 66 65% 81 29.91 1011.9
05 01:52 Calm 10.00 Partly Cloudy SCT080 78.1 66.9 69% 80 29.92 1012.0
05 00:52 E 3 10.00 Fair CLR 78.1 66.9 96.1 77 69% 80 29.91 1012.0
04 23:52 Calm 10.00 Fair CLR 78.1 66.9 69% 80 29.91 1012.0
04 22:52 Calm 10.00 Fair CLR 81 66.9 62% 83 29.92 1012.0
04 21:52 Calm 10.00 Fair CLR 82.9 66.9 59% 86 29.91 1011.8
04 20:52 S 5 10.00 Fair CLR 87.1 66 50% 89 29.88 1010.7
04 19:52 S 5 10.00 Fair CLR 91.9 66 43% 95 29.86 1010.4
04 18:52 S 9 10.00 Fair CLR 96.1 64.9 100 93.9 36% 99 29.87 1010.4
04 17:52 S 14 10.00 Fair CLR 99 64.9 33% 102 29.87 1010.4
04 16:52 S 15 G 22 10.00 Fair CLR 99 66 34% 103 29.87 1010.5
04 15:52 SW 13 G 21 10.00 Fair CLR 98.1 66 35% 102 29.88 1011.0
04 14:52 S 14 G 21 10.00 Fair CLR 98.1 66 35% 102 29.91 1011.8
04 13:52 S 13 10.00 Fair CLR 96.1 66.9 39% 100 29.92 1012.2
04 12:52 S 10 G 21 10.00 Fair CLR 93.9 66.9 95 72 41% 98 29.94 1012.8
04 11:52 S 15 10.00 Fair CLR 91.9 66 43% 95 29.96 1013.4
04 10:52 S 16 G 25 10.00 Fair CLR 90 66.9 47% 93 29.96 1013.6
04 09:52 S 12 10.00 Fair CLR 87.1 69.1 55% 91 29.96 1013.7
04 08:52 S 9 10.00 Fair CLR 82 70 67% 86 29.96 1013.7
04 07:52 SE 5 10.00 Fair CLR 75.9 69.1 79% 77 29.95 1013.5
04 06:52 E 3 10.00 Fair CLR 73 68 80.1 72 84% 29.95 1013.2
04 05:52 Calm 10.00 Fair CLR 73.9 68 82% 29.93 1012.7
04 04:52 SE 5 10.00 Fair CLR 75 68 79% 76 29.93 1012.5
04 03:52 SE 5 10.00 Fair CLR 75 69.1 82% 75 29.91 1011.9
04 02:52 S 5 10.00 Fair CLR 78.1 69.1 74% 80 29.9 1011.5
04 01:52 S 6 10.00 Fair CLR 79 70 74% 82 29.91 1011.7
04 00:52 S 5 10.00 Fair CLR 79 69.1 95 79 72% 82 29.9 1011.7
03 23:52 S 3 10.00 Fair CLR 82 69.1 65% 85 29.9 1011.4
03 22:52 S 6 10.00 Fair CLR 82.9 69.1 63% 87 29.89 1011.2
03 21:52 S 5 10.00 Fair CLR 86 69.1 57% 90 29.88 1011.0
03 20:52 S 7 10.00 Fair CLR 88 69.1 54% 92 29.86 1010.2
03 19:52 S 7 10.00 Fair CLR 91 68 47% 95 29.85 1009.8
03 18:52 S 14 10.00 Fair CLR 95 66.9 100 93 40% 99 29.84 1009.5
03 17:52 S 16 10.00 Fair CLR 98.1 66.9 36% 103 29.83 1009.2
03 16:52 S 17 10.00 Fair CLR 99 66 34% 103 29.84 1009.4
03 15:52 S 14 10.00 Fair CLR 98.1 64.9 34% 101 29.85 1010.0
03 14:52 S 14 G 22 10.00 Fair CLR 98.1 66 35% 102 29.87 1010.5
03 13:52 SW 16 G 25 10.00 Fair CLR 96.1 68 40% 101 29.9 1011.4
03 12:52 S 14 G 22 10.00 Fair CLR 93.9 69.1 93.9 75 44% 99 29.91 1012.0
03 11:52 S 15 G 23 10.00 Fair CLR 93 68 44% 97 29.94 1012.8
03 10:52 SW 15 10.00 Fair CLR 90 68 48% 94 29.95 1013.1
03 09:52 S 15 10.00 Fair CLR 86 69.1 57% 90 29.95 1013.3
03 08:52 S 12 10.00 Fair CLR 82.9 70 65% 87 29.97 1013.9
03 07:52 S 7 10.00 Fair CLR 78.1 68 71% 80 29.96 1013.7
03 06:52 S 7 10.00 Fair CLR 75.9 68 82.9 75.9 77% 77 29.94 1012.9
03 05:52 S 6 10.00 Fair CLR 77 68 74% 79 29.94 1012.8
03 04:52 S 6 10.00 Fair CLR 78.1 66.9 69% 80 29.94 1012.7
03 03:52 S 6 10.00 Fair CLR 78.1 66 67% 80 29.93 1012.4
03 02:52 S 7 10.00 Fair CLR 80.1 66 62% 82 29.93 1012.3
03 01:52 S 7 10.00 Fair CLR 82 64.9 56% 84 29.92 1012.1
03 00:52 S 7 10.00 Fair CLR 82 64.9 97 80.1 56% 84 29.91 1011.9
02 23:52 SE 6 10.00 Fair CLR 82 64.9 56% 84 29.91 1011.7
02 22:52 SE 3 10.00 Fair CLR 82.9 64 53% 84 29.9 1011.7
02 21:52 S 5 10.00 Fair CLR 86 64 48% 87 29.9 1011.5
02 20:52 S 5 10.00 Fair CLR 89.1 64 43% 90 29.88 1011.0
02 19:52 S 6 10.00 Fair CLR 91 64 41% 93 29.87 1010.6
02 18:52 S 12 10.00 Fair CLR 97 63 102 97 33% 99 29.88 1010.8
02 17:52 S 15 G 21 10.00 Fair CLR 100 63 30% 102 29.88 1010.9
02 16:52 S 12 10.00 Fair CLR 100 62.1 29% 102 29.89 1011.1
02 15:52 S 12 G 23 10.00 Fair CLR 100 62.1 29% 102 29.91 1011.7
02 14:52 S 9 10.00 Fair CLR 100 64.9 32% 103 29.93 1012.5
02 13:52 S 13 G 21 10.00 Fair CLR 100 64 31% 103 29.95 1013.3
02 12:52 S 10 G 20 10.00 Fair CLR 98.1 62.1 98.1 75 31% 99 29.98 1014.3
02 11:52 S 12 G 22 10.00 Fair CLR 96.1 66 37% 100 30 1014.9
02 10:52 S 14 10.00 Fair CLR 93 68 44% 97 30.01 1015.4
02 09:52 S 15 10.00 Fair CLR 89.1 68 50% 93 30.01 1015.4
02 08:52 S 10 10.00 Fair CLR 84.9 68 57% 88 30.02 1015.5
02 07:52 S 6 10.00 Fair CLR 79 68 69% 81 30.01 1015.4
02 06:52 SE 5 10.00 Fair CLR 75 66.9 82 75 76% 76 29.99 1014.7
02 05:52 S 6 10.00 Fair CLR 79 66.9 67% 81 29.98 1014.2
Date Time (cdt) Wind (mph) Vis. (mi.) Weather Sky Cond. Air Dwpt Max. Min. Relative Humidity Wind Chill (°F) Heat Index (°F) altimeter (in) sea level (mb) 1 hr 3 hr 6 hr
6 hour
Temperature (ºF) Pressure Precipitation (in)